aviador You're here:

ZUCK Decoded Metar

CHONGQING in CHINA
Report Time2018-05-25 20:00:00
UTC Time2018-05-25 20:49:12
Flight Rules mvfr MVFR
Wind360° at 6 kt
W.Decomp.*RWY 02: 5.7 kt HW 2 kt LCW
Visibility7000 m
Phenomena:N/A
Clouds:N/A
Expected CloudBase > 800 ft AGL from Temp-Dew spread
CeilingNone
Temp22°C (ISA +9)
Dew Point20°C (88% RH)
QNH1006 hPa
Density Alt2,782 ft
Elevation1,152 ft
Report Wrong Elevation
Raw Report
METAR ZUCK 252000Z 36003MPS 7000 NSC 22/20 Q1006 NOSIG=

Extra information for ZUCK:More info

Metar Taf Metar & Taf Last 4 Metars F.Rules Stats Wind Profile Meteogram Temp Stats Airport Information Weather charts Add Link Nearby VenuesMetar ALERT Operation Metar Decoded Social comments